createdAt,value
2023-06-04T00:06:02.075Z,97.80
2023-06-04T00:16:04.026Z,98.60
2023-06-04T00:26:06.005Z,99.20
2023-06-04T00:36:08.183Z,99.70
2023-06-04T00:46:10.213Z,99.90
2023-06-04T00:56:13.618Z,99.90
2023-06-04T01:06:34.962Z,99.90
2023-06-04T01:16:46.727Z,99.90
2023-06-04T01:26:50.344Z,99.90
2023-06-04T01:36:52.451Z,99.90
2023-06-04T01:46:54.418Z,99.90
2023-06-04T01:56:56.367Z,99.90
2023-06-04T02:06:58.749Z,99.90
2023-06-04T02:17:00.930Z,99.90
2023-06-04T02:27:03.368Z,99.90
2023-06-04T02:37:06.184Z,99.90
2023-06-04T02:47:08.233Z,99.90
2023-06-04T02:57:10.265Z,99.90
2023-06-04T03:07:12.227Z,99.90
2023-06-04T03:17:14.154Z,99.90
2023-06-04T03:27:16.047Z,99.90
2023-06-04T03:37:18.647Z,99.90
2023-06-04T03:47:20.716Z,99.90
2023-06-04T03:57:22.704Z,99.90
2023-06-04T04:07:25.238Z,99.50
2023-06-04T04:17:27.469Z,96.90
2023-06-04T04:27:30.120Z,95.20
2023-06-04T04:37:32.857Z,95.50
2023-06-04T04:47:35.371Z,90.80
2023-06-04T04:57:37.364Z,80.10
2023-06-04T05:07:39.712Z,74.10
2023-06-04T05:17:41.875Z,74.00
2023-06-04T05:27:46.314Z,71.70
2023-06-04T05:37:49.488Z,70.20
2023-06-04T05:47:55.271Z,69.20
2023-06-04T05:57:58.189Z,65.00
2023-06-04T06:08:00.688Z,65.50
2023-06-04T06:18:02.899Z,65.00
2023-06-04T06:28:05.043Z,57.90
2023-06-04T06:38:08.184Z,54.90
2023-06-04T06:48:10.214Z,55.10
2023-06-04T06:58:12.132Z,54.20
2023-06-04T07:08:14.098Z,54.80
2023-06-04T07:18:16.061Z,56.30
2023-06-04T07:28:17.920Z,55.20
2023-06-04T07:38:19.877Z,53.20
2023-06-04T07:48:21.714Z,52.70
2023-06-04T07:58:24.393Z,51.60
2023-06-04T08:08:26.283Z,49.30
2023-06-04T08:18:28.111Z,49.60
2023-06-04T08:28:30.108Z,49.80
2023-06-04T08:38:32.295Z,48.50
2023-06-04T08:48:34.316Z,47.50
2023-06-04T08:58:40.903Z,47.30
2023-06-04T09:08:53.739Z,47.70
2023-06-04T09:19:02.132Z,46.30
2023-06-04T09:29:06.456Z,48.10
2023-06-04T09:39:18.170Z,45.60
2023-06-04T09:49:20.055Z,46.50
2023-06-04T09:59:21.986Z,46.60
2023-06-04T10:09:25.572Z,45.40
2023-06-04T10:19:28.788Z,45.70
2023-06-04T10:29:31.508Z,44.80
2023-06-04T10:39:33.971Z,45.50
2023-06-04T10:49:35.923Z,44.60
2023-06-04T10:59:59.890Z,44.80
2023-06-04T11:10:01.940Z,44.70
2023-06-04T11:20:04.595Z,45.20
2023-06-04T11:30:09.819Z,44.80
2023-06-04T11:40:19.067Z,44.40
2023-06-04T11:50:21.683Z,45.60
2023-06-04T12:00:24.040Z,45.00
2023-06-04T12:10:25.937Z,45.30
2023-06-04T12:20:36.538Z,45.50
2023-06-04T12:30:42.030Z,45.30
2023-06-04T12:40:44.124Z,45.60
2023-06-04T12:50:46.111Z,45.80
2023-06-04T13:00:48.024Z,46.10
2023-06-04T13:10:52.030Z,46.40
2023-06-04T13:20:53.919Z,47.10
2023-06-04T13:30:55.788Z,46.30
2023-06-04T13:40:57.804Z,45.30
2023-06-04T13:50:59.738Z,46.60
2023-06-04T14:01:01.774Z,46.50
2023-06-04T14:11:03.830Z,46.30
2023-06-04T14:21:05.890Z,45.80
2023-06-04T14:31:08.256Z,46.20
2023-06-04T14:41:10.519Z,46.50
2023-06-04T14:51:12.973Z,46.90
2023-06-04T15:01:14.937Z,46.40
2023-06-04T15:11:17.361Z,46.10
2023-06-04T15:21:19.363Z,46.20
2023-06-04T15:31:21.417Z,46.70
2023-06-04T15:41:23.450Z,46.80
2023-06-04T15:51:25.321Z,46.50
2023-06-04T16:01:27.366Z,46.70
2023-06-04T16:11:29.312Z,46.00
2023-06-04T16:21:31.328Z,46.40
2023-06-04T16:31:33.207Z,46.60
2023-06-04T16:41:35.171Z,46.40
2023-06-04T16:51:38.732Z,47.00
2023-06-04T17:01:40.518Z,47.30
2023-06-04T17:11:43.456Z,47.50
2023-06-04T17:21:45.678Z,47.60
2023-06-04T17:31:47.738Z,47.40
2023-06-04T17:41:49.575Z,46.90
2023-06-04T17:51:51.463Z,47.10
2023-06-04T18:01:53.304Z,46.90
2023-06-04T18:11:55.251Z,47.80
2023-06-04T18:21:57.203Z,48.40
2023-06-04T18:31:59.979Z,48.90
2023-06-04T18:52:05.528Z,49.90
2023-06-04T19:02:07.455Z,50.90
2023-06-04T19:12:09.416Z,51.40
2023-06-04T19:22:11.348Z,51.90
2023-06-04T19:32:13.546Z,53.60
2023-06-04T19:42:15.473Z,52.60
2023-06-04T19:52:17.489Z,51.60
2023-06-04T20:02:19.339Z,51.50
2023-06-04T20:12:21.500Z,51.50
2023-06-04T20:22:24.393Z,51.90
2023-06-04T20:32:26.594Z,52.00
2023-06-04T20:42:30.003Z,52.60
2023-06-04T20:52:31.992Z,53.30
2023-06-04T21:02:34.048Z,53.90
2023-06-04T21:12:35.994Z,54.70
2023-06-04T21:22:38.203Z,55.40
2023-06-04T21:32:40.302Z,55.90
2023-06-04T21:42:42.219Z,56.30
2023-06-04T21:52:44.568Z,57.30
2023-06-04T22:02:46.729Z,57.30
2023-06-04T22:12:48.680Z,60.20
2023-06-04T22:22:50.507Z,63.60
2023-06-04T22:32:54.003Z,66.30
2023-06-04T22:42:55.951Z,70.30
2023-06-04T22:52:57.855Z,75.30
2023-06-04T23:02:59.891Z,80.90
2023-06-04T23:13:01.794Z,89.40
2023-06-04T23:23:03.733Z,90.10
2023-06-04T23:33:05.914Z,90.60
2023-06-04T23:43:07.892Z,91.50
2023-06-04T23:53:10.056Z,92.60
